Time;durP1;ratioP1;P1;durP2;ratioP2;P2;SDS_P1;SDS_P2;PMS_P1;PMS_P2;Temp;Humidity;BMP_temperature;BMP_pressure;BME280_temperature;BME280_humidity;BME280_pressure;Samples;Min_cycle;Max_cycle;Signal;HPM_P1;HPM_P2
2023/01/30 00:01:35;;;;;;;31.63;21.85;;;;;;;0.20;85.57;98725.19;4174058;28;20211;-88
2023/01/30 00:03:38;;;;;;;30.02;20.20;;;;;;;0.22;85.75;98724.28;4135876;28;21516;-88
2023/01/30 00:05:41;;;;;;;32.45;21.42;;;;;;;0.25;85.50;98718.25;4173373;28;20202;-88
2023/01/30 00:07:44;;;;;;;35.38;22.35;;;;;;;0.23;85.18;98713.16;4155045;28;20262;-88
2023/01/30 00:09:47;;;;;;;30.45;20.00;;;;;;;0.23;85.05;98707.19;4143968;28;20544;-88
2023/01/30 00:11:50;;;;;;;34.95;23.70;;;;;;;0.23;85.00;98708.03;4153777;28;20218;-88
2023/01/30 00:13:53;;;;;;;30.63;21.85;;;;;;;0.25;84.70;98708.00;4158204;28;20225;-88
2023/01/30 00:15:56;;;;;;;29.83;20.20;;;;;;;0.24;84.89;98696.03;4174510;28;20202;-88
2023/01/30 00:18:01;;;;;;;30.65;19.45;;;;;;;0.24;84.31;98693.47;4158419;28;20214;-88
2023/01/30 00:20:04;;;;;;;28.45;19.92;;;;;;;0.24;84.57;98699.47;4139673;28;20307;-88
2023/01/30 00:22:09;;;;;;;34.65;20.80;;;;;;;0.25;85.17;98708.84;4142111;28;20203;-88
2023/01/30 00:24:12;;;;;;;28.85;20.10;;;;;;;0.26;85.07;98707.13;4160108;28;20214;-88
2023/01/30 00:26:15;;;;;;;31.95;21.33;;;;;;;0.24;85.53;98701.16;4159175;28;20221;-88
2023/01/30 00:28:18;;;;;;;27.80;19.23;;;;;;;0.23;84.90;98686.69;4143048;28;20211;-88
2023/01/30 00:30:22;;;;;;;27.77;19.88;;;;;;;0.21;85.32;98678.16;4156313;28;20749;-88
2023/01/30 00:32:26;;;;;;;29.17;19.85;;;;;;;0.22;85.36;98677.28;4141885;28;20693;-88
2023/01/30 00:34:33;;;;;;;27.95;19.50;;;;;;;0.22;85.06;98677.28;4161051;28;20206;-88
2023/01/30 00:36:39;;;;;;;24.98;17.75;;;;;;;0.24;85.23;98678.97;4173585;28;20229;-88
2023/01/30 00:38:42;;;;;;;30.98;20.23;;;;;;;0.27;85.80;98673.78;4145018;28;20247;-88
2023/01/30 00:40:46;;;;;;;40.70;28.35;;;;;;;0.31;85.39;98683.09;4136934;28;20315;-88
2023/01/30 00:47:33;;;;;;;44.38;25.42;;;;;;;0.20;85.20;98705.53;4170732;28;20674;-88
2023/01/30 00:49:38;;;;;;;27.23;19.77;;;;;;;0.17;84.83;98708.13;4154882;28;20281;-88
2023/01/30 00:51:41;;;;;;;27.35;18.33;;;;;;;0.14;83.88;98710.75;4169776;28;20199;-88
2023/01/30 00:53:44;;;;;;;29.98;20.08;;;;;;;0.09;84.31;98711.69;4140956;28;20230;-88
2023/01/30 00:55:51;;;;;;;28.45;19.95;;;;;;;0.07;83.65;98721.97;4156422;28;20210;-88
2023/01/30 00:57:55;;;;;;;26.92;18.45;;;;;;;0.03;83.92;98729.75;4142582;28;20261;-88
2023/01/30 00:59:58;;;;;;;28.42;19.02;;;;;;;0.03;83.95;98747.69;4141661;28;20478;-88
2023/01/30 01:02:01;;;;;;;24.60;17.90;;;;;;;0.02;84.19;98749.41;4160526;28;20237;-88
2023/01/30 01:04:05;;;;;;;24.98;18.75;;;;;;;0.00;84.70;98746.03;4156937;28;20227;-88
2023/01/30 01:06:09;;;;;;;27.25;18.45;;;;;;;0.01;84.63;98757.13;4155508;28;20211;-88
2023/01/30 01:08:13;;;;;;;26.50;18.48;;;;;;;0.02;84.91;98751.13;4158497;28;20203;-88
2023/01/30 01:10:17;;;;;;;29.02;19.60;;;;;;;0.02;84.88;98749.41;4159757;28;20261;-88
2023/01/30 01:12:20;;;;;;;31.10;22.67;;;;;;;0.06;85.01;98750.19;4155806;28;20754;-88
2023/01/30 01:14:23;;;;;;;30.13;20.20;;;;;;;0.09;85.31;98739.88;4158175;28;21173;-89
2023/01/30 01:16:27;;;;;;;29.17;19.15;;;;;;;0.12;85.86;98738.13;4157372;28;20216;-88
2023/01/30 01:18:33;;;;;;;28.60;19.48;;;;;;;0.16;86.10;98746.63;4159805;28;20276;-88
2023/01/30 01:20:36;;;;;;;26.30;18.58;;;;;;;0.23;86.38;98761.03;4174694;28;20281;-88
2023/01/30 01:22:41;;;;;;;30.00;19.35;;;;;;;0.25;87.03;98756.72;4142605;28;20207;-88
2023/01/30 01:24:44;;;;;;;26.90;18.40;;;;;;;0.28;86.72;98754.94;4174500;28;20552;-88
2023/01/30 01:26:47;;;;;;;26.40;17.83;;;;;;;0.33;87.09;98754.84;4153650;28;20670;-88
2023/01/30 01:28:54;;;;;;;25.88;18.58;;;;;;;0.39;87.01;98770.13;4150084;28;20213;-88
2023/01/30 01:30:57;;;;;;;26.05;17.60;;;;;;;0.44;86.86;98761.50;4154731;28;20940;-88
2023/01/30 01:33:02;;;;;;;26.20;17.85;;;;;;;0.46;86.50;98767.44;4157564;28;20210;-88
2023/01/30 01:35:06;;;;;;;25.30;17.23;;;;;;;0.45;86.79;98765.72;4137612;28;20713;-88
2023/01/30 01:37:09;;;;;;;24.98;18.02;;;;;;;0.47;87.23;98767.41;4167816;28;20203;-88
2023/01/30 01:39:13;;;;;;;28.60;18.38;;;;;;;0.54;87.40;98773.25;4141674;28;20219;-88
2023/01/30 01:41:17;;;;;;;24.55;17.98;;;;;;;0.57;87.36;98763.81;4151470;28;20610;-88
2023/01/30 01:43:22;;;;;;;25.00;18.08;;;;;;;0.60;87.21;98763.75;4172986;28;20241;-88
2023/01/30 01:45:26;;;;;;;26.65;18.45;;;;;;;0.63;87.50;98760.25;4149893;28;20214;-88
2023/01/30 01:47:30;;;;;;;25.35;16.70;;;;;;;0.68;87.44;98769.56;4156156;28;20207;-88
2023/01/30 01:49:35;;;;;;;24.50;16.52;;;;;;;0.71;87.33;98760.97;4141655;28;20214;-88
2023/01/30 01:51:41;;;;;;;24.67;17.05;;;;;;;0.72;87.52;98749.81;4155241;28;20681;-88
2023/01/30 01:53:50;;;;;;;21.88;16.00;;;;;;;0.74;87.39;98745.53;4174781;28;20233;-89
2023/01/30 01:55:57;;;;;;;21.35;16.60;;;;;;;0.75;87.33;98745.50;4174073;28;20674;-88
2023/01/30 01:58:03;;;;;;;25.25;16.55;;;;;;;0.78;87.33;98754.84;4159267;28;20664;-89
2023/01/30 02:00:11;;;;;;;24.70;16.67;;;;;;;0.83;87.75;98761.59;4157473;28;20203;-88
2023/01/30 02:02:17;;;;;;;23.05;16.15;;;;;;;0.89;87.44;98768.28;4157699;28;20305;-88
2023/01/30 02:05:00;;;;;;;23.67;15.43;;;;;;;0.89;87.25;98758.91;4154358;28;20294;-88
2023/01/30 02:06:48;;;;;;;25.45;17.35;;;;;;;0.90;87.50;98745.16;4141465;28;20210;-88
2023/01/30 02:08:54;;;;;;;23.52;16.70;;;;;;;0.87;87.44;98739.25;4155229;28;20298;-89
2023/01/30 02:11:08;;;;;;;24.83;17.95;;;;;;;0.86;87.13;98738.44;4169939;28;21126;-88
2023/01/30 02:13:12;;;;;;;26.23;18.00;;;;;;;0.85;87.27;98730.75;4161279;28;20228;-88
2023/01/30 02:15:15;;;;;;;24.98;18.58;;;;;;;0.82;87.32;98741.91;4162320;28;20250;-88
2023/01/30 02:17:20;;;;;;;23.63;16.65;;;;;;;0.75;86.86;98732.66;4158887;28;20210;-88
2023/01/30 02:19:32;;;;;;;25.63;17.85;;;;;;;0.76;87.17;98728.38;4143542;28;20211;-88
2023/01/30 02:22:05;;;;;;;24.40;16.65;;;;;;;0.77;87.65;98727.50;4162869;28;20293;-88
2023/01/30 02:24:52;;;;;;;24.00;16.30;;;;;;;0.78;87.63;98713.78;4171513;28;20289;-88
2023/01/30 02:27:23;;;;;;;24.17;17.33;;;;;;;0.76;87.21;98695.00;4154031;28;20752;-88
2023/01/30 02:29:44;;;;;;;22.58;15.07;;;;;;;0.68;87.28;98692.59;4177634;28;20694;-88
2023/01/30 02:31:50;;;;;;;23.67;16.13;;;;;;;0.65;87.55;98700.34;4161277;28;20722;-89
2023/01/30 02:34:04;;;;;;;25.50;16.98;;;;;;;0.60;87.37;98699.63;4141045;28;20254;-88
2023/01/30 02:36:16;;;;;;;23.85;15.88;;;;;;;0.61;87.48;98696.16;4173126;28;20292;-88
2023/01/30 02:38:28;;;;;;;25.77;16.25;;;;;;;0.64;87.47;98680.69;4141202;28;20253;-88
2023/01/30 02:40:41;;;;;;;29.67;20.02;;;;;;;0.70;87.49;98677.19;4158135;28;20203;-88
2023/01/30 02:42:48;;;;;;;21.83;16.25;;;;;;;0.74;87.94;98663.41;4162892;28;20202;-88
2023/01/30 02:44:56;;;;;;;23.50;16.27;;;;;;;0.78;87.26;98663.28;4159259;28;20222;-88
2023/01/30 02:47:04;;;;;;;24.63;17.15;;;;;;;0.81;87.41;98672.66;4157508;28;20587;-88
2023/01/30 02:49:09;;;;;;;27.35;17.27;;;;;;;0.84;87.65;98690.56;4162082;28;20198;-88
2023/01/30 02:51:17;;;;;;;25.85;16.27;;;;;;;0.88;87.46;98695.59;4158469;28;20222;-88
2023/01/30 02:53:21;;;;;;;22.55;15.63;;;;;;;0.88;86.88;98689.63;4175471;28;20214;-88
2023/01/30 02:55:26;;;;;;;28.45;18.50;;;;;;;0.92;87.23;98674.13;4174773;28;20263;-88
2023/01/30 02:57:29;;;;;;;28.15;18.02;;;;;;;0.96;87.63;98689.44;4144021;28;20265;-88
2023/01/30 02:59:37;;;;;;;28.42;17.77;;;;;;;1.01;87.55;98686.78;4160501;28;20250;-88
2023/01/30 03:02:02;;;;;;;24.65;16.83;;;;;;;1.08;87.13;98689.19;4138092;28;20223;-88
2023/01/30 03:04:26;;;;;;;24.13;15.85;;;;;;;1.12;88.08;98685.66;4160890;28;20261;-88
2023/01/30 03:06:44;;;;;;;24.15;16.58;;;;;;;1.13;87.67;98671.09;4144625;28;20250;-88
2023/01/30 03:08:56;;;;;;;25.60;15.50;;;;;;;1.17;88.17;98668.41;4143872;28;20286;-88
2023/01/30 03:11:01;;;;;;;23.63;16.02;;;;;;;1.23;87.50;98659.72;4172252;28;20296;-88
2023/01/30 03:13:10;;;;;;;27.65;18.30;;;;;;;1.27;87.90;98645.94;4158344;28;21318;-88
2023/01/30 03:15:17;;;;;;;26.08;16.73;;;;;;;1.32;87.30;98636.41;4158156;28;20198;-88
2023/01/30 03:17:25;;;;;;;23.38;16.30;;;;;;;1.38;87.12;98641.41;4143260;28;20734;-88
2023/01/30 03:19:29;;;;;;;23.63;16.50;;;;;;;1.42;86.97;98641.28;4142140;28;20298;-88
2023/01/30 03:21:32;;;;;;;24.90;17.05;;;;;;;1.44;87.24;98617.28;4147896;28;20211;-88
2023/01/30 03:23:36;;;;;;;24.95;15.65;;;;;;;1.45;86.55;98602.69;4177968;28;20310;-88
2023/01/30 03:25:41;;;;;;;23.23;15.32;;;;;;;1.43;86.34;98589.88;4162142;28;20207;-88
2023/01/30 03:27:45;;;;;;;25.48;17.50;;;;;;;1.44;86.69;98580.44;4159779;28;20285;-88
2023/01/30 03:29:48;;;;;;;23.75;15.57;;;;;;;1.48;86.03;98582.91;4144862;28;20959;-88
2023/01/30 03:31:51;;;;;;;24.13;16.48;;;;;;;1.48;86.35;98582.06;4142910;28;20661;-88
2023/01/30 03:33:55;;;;;;;24.98;16.75;;;;;;;1.52;86.27;98584.50;4143959;28;20207;-88
2023/01/30 03:35:59;;;;;;;23.48;15.25;;;;;;;1.53;86.12;98575.94;4139074;28;20275;-88
2023/01/30 03:38:02;;;;;;;25.20;17.08;;;;;;;1.56;86.41;98586.09;4144274;28;20253;-88
2023/01/30 03:40:06;;;;;;;22.35;15.38;;;;;;;1.59;86.50;98591.16;4173945;28;20200;-89
2023/01/30 03:42:09;;;;;;;23.20;16.35;;;;;;;1.62;86.59;98596.22;4154917;28;20214;-88
2023/01/30 03:44:12;;;;;;;25.88;16.15;;;;;;;1.66;86.26;98586.75;4155685;28;20219;-88
2023/01/30 03:46:18;;;;;;;23.00;16.00;;;;;;;1.69;86.22;98595.22;4155418;28;20222;-88
2023/01/30 03:48:22;;;;;;;23.25;15.70;;;;;;;1.71;86.16;98590.84;4141315;28;20271;-88
2023/01/30 03:50:27;;;;;;;24.65;15.80;;;;;;;1.75;85.57;98599.34;4156436;28;20215;-88
2023/01/30 03:52:30;;;;;;;22.98;15.20;;;;;;;1.77;85.89;98600.16;4156904;28;20273;-88
2023/01/30 03:54:33;;;;;;;22.50;15.85;;;;;;;1.79;85.50;98594.09;4161233;28;20233;-88
2023/01/30 03:56:36;;;;;;;23.02;15.93;;;;;;;1.81;85.31;98584.59;4174031;28;20203;-88
2023/01/30 03:58:39;;;;;;;27.60;16.10;;;;;;;1.82;85.42;98583.75;4177502;28;20205;-88
2023/01/30 04:00:56;;;;;;;22.23;15.50;;;;;;;1.84;85.61;98584.53;4142028;28;20712;-88
2023/01/30 04:03:00;;;;;;;23.73;15.70;;;;;;;1.85;85.64;98587.94;4139084;28;20234;-88
2023/01/30 04:05:04;;;;;;;32.92;20.15;;;;;;;1.82;85.58;98599.16;4141949;28;20292;-88
2023/01/30 04:07:08;;;;;;;25.40;18.25;;;;;;;1.82;85.53;98601.72;4157670;28;20721;-88
2023/01/30 04:09:14;;;;;;;27.13;17.42;;;;;;;1.85;85.46;98606.78;4157153;28;20202;-88
2023/01/30 04:11:23;;;;;;;25.08;17.00;;;;;;;1.84;85.96;98597.38;4171153;28;20225;-89
2023/01/30 04:13:26;;;;;;;26.80;16.80;;;;;;;1.84;86.67;98594.81;4160341;28;20263;-88
2023/01/30 04:15:29;;;;;;;23.27;16.10;;;;;;;1.85;86.67;98593.94;4157071;28;20210;-88
2023/01/30 04:18:06;;;;;;;26.05;16.55;;;;;;;1.86;86.76;98592.19;4146573;28;20613;-88
2023/01/30 04:20:10;;;;;;;24.85;16.80;;;;;;;1.88;86.79;98588.72;4162558;28;20241;-88
2023/01/30 04:22:19;;;;;;;28.30;17.52;;;;;;;1.89;87.02;98585.25;4161207;28;20237;-88
2023/01/30 04:24:22;;;;;;;24.42;17.50;;;;;;;1.91;86.69;98586.91;4161168;28;20211;-88
2023/01/30 04:26:25;;;;;;;26.27;17.08;;;;;;;1.88;86.44;98586.16;4177621;28;20256;-88
2023/01/30 04:28:28;;;;;;;25.25;17.30;;;;;;;1.92;86.53;98592.88;4142940;28;20222;-88
2023/01/30 04:30:31;;;;;;;28.02;17.58;;;;;;;1.92;86.49;98587.72;4160097;28;20206;-89
2023/01/30 04:33:03;;;;;;;23.50;16.40;;;;;;;1.92;85.67;98595.44;4166609;28;20227;-89
2023/01/30 04:35:07;;;;;;;21.73;15.27;;;;;;;1.94;85.81;98594.53;4156578;28;20203;-89
2023/01/30 04:37:10;;;;;;;28.02;17.25;;;;;;;1.93;85.99;98587.69;4154709;28;20207;-88
2023/01/30 04:39:15;;;;;;;25.05;16.65;;;;;;;1.99;85.58;98579.81;4142247;28;20281;-89
2023/01/30 04:41:18;;;;;;;24.73;16.27;;;;;;;1.99;85.78;98581.56;4156881;28;20211;-89
2023/01/30 04:43:21;;;;;;;26.70;17.40;;;;;;;1.98;86.14;98582.44;4136276;28;20877;-89
2023/01/30 04:45:30;;;;;;;26.70;17.23;;;;;;;2.00;86.19;98590.94;4172900;28;20596;-89
2023/01/30 04:47:33;;;;;;;25.02;16.90;;;;;;;2.01;86.07;98595.19;4154309;28;20590;-89
2023/01/30 04:49:36;;;;;;;25.52;15.90;;;;;;;2.02;85.88;98587.44;4170581;28;20255;-89
2023/01/30 04:51:41;;;;;;;26.88;17.20;;;;;;;2.05;85.98;98589.09;4175362;28;20296;-89
2023/01/30 04:53:44;;;;;;;26.65;17.75;;;;;;;2.05;86.12;98586.53;4174605;28;20705;-89
2023/01/30 04:55:50;;;;;;;23.98;15.43;;;;;;;2.05;86.26;98582.22;4155763;28;20215;-89
2023/01/30 04:57:53;;;;;;;25.60;17.52;;;;;;;2.07;86.66;98584.75;4159933;28;20203;-89
2023/01/30 04:59:57;;;;;;;24.67;16.33;;;;;;;2.08;86.09;98583.88;4157391;28;20209;-88
2023/01/30 05:02:00;;;;;;;29.40;17.15;;;;;;;2.07;86.44;98579.59;4155965;28;20219;-89
2023/01/30 05:04:03;;;;;;;23.08;15.20;;;;;;;2.10;86.13;98571.81;4160896;28;20218;-89
2023/01/30 05:06:07;;;;;;;26.52;17.10;;;;;;;2.08;86.37;98574.44;4139167;28;20215;-89
2023/01/30 05:08:10;;;;;;;27.25;16.85;;;;;;;2.08;86.56;98576.16;4154168;28;20214;-89
2023/01/30 05:10:13;;;;;;;26.42;16.13;;;;;;;2.09;86.27;98570.97;4154819;28;20213;-88
2023/01/30 05:12:18;;;;;;;24.90;15.82;;;;;;;2.11;85.91;98578.66;4159521;28;20733;-89
2023/01/30 05:14:21;;;;;;;22.42;15.23;;;;;;;2.10;85.77;98561.53;4159083;28;20277;-89
2023/01/30 05:16:24;;;;;;;22.33;14.75;;;;;;;2.11;86.03;98561.47;4157150;28;20246;-88
2023/01/30 05:18:27;;;;;;;22.55;14.10;;;;;;;2.12;86.04;98563.19;4175727;28;20247;-88
2023/01/30 05:20:30;;;;;;;23.48;14.63;;;;;;;2.15;85.95;98563.09;4144331;28;20211;-88
2023/01/30 05:22:34;;;;;;;17.70;12.77;;;;;;;2.15;85.71;98563.09;4138832;28;20208;-89
2023/01/30 05:24:37;;;;;;;19.77;14.05;;;;;;;2.18;85.52;98568.16;4143750;28;20211;-89
2023/01/30 05:26:40;;;;;;;20.10;13.90;;;;;;;2.20;85.11;98565.53;4174802;28;20305;-88
2023/01/30 05:28:44;;;;;;;19.30;13.30;;;;;;;2.21;85.09;98560.34;4174330;28;20260;-88
2023/01/30 05:30:47;;;;;;;20.42;13.02;;;;;;;2.20;85.10;98553.50;4155523;28;20215;-89
2023/01/30 05:32:50;;;;;;;21.80;13.55;;;;;;;2.21;85.28;98537.22;4154422;28;20211;-88
2023/01/30 05:34:53;;;;;;;20.17;13.63;;;;;;;2.20;85.01;98545.78;4134251;28;20219;-88
2023/01/30 05:36:56;;;;;;;19.08;13.07;;;;;;;2.21;85.28;98551.78;4175463;28;20263;-88
2023/01/30 05:39:01;;;;;;;21.05;13.02;;;;;;;2.23;85.17;98542.31;4140300;28;20788;-88
2023/01/30 05:41:05;;;;;;;15.93;11.90;;;;;;;2.22;85.00;98543.19;4157946;28;20207;-88
2023/01/30 05:43:09;;;;;;;18.95;12.63;;;;;;;2.23;84.83;98550.03;4158847;28;20625;-88
2023/01/30 05:45:13;;;;;;;18.50;12.43;;;;;;;2.24;84.56;98536.25;4171238;28;20217;-88
2023/01/30 05:47:16;;;;;;;18.38;11.90;;;;;;;2.28;84.88;98543.84;4173817;28;20210;-88
2023/01/30 05:49:19;;;;;;;19.65;13.20;;;;;;;2.30;85.37;98536.06;4154168;28;20210;-88
2023/01/30 05:51:23;;;;;;;18.40;12.88;;;;;;;2.32;85.32;98537.72;4174389;28;20297;-88
2023/01/30 05:53:29;;;;;;;17.65;12.10;;;;;;;2.29;85.23;98535.25;4172699;28;20229;-88
2023/01/30 05:55:31;;;;;;;15.05;11.10;;;;;;;2.28;85.00;98533.56;4172159;28;20203;-88
2023/01/30 05:57:34;;;;;;;16.65;11.00;;;;;;;2.18;84.80;98521.00;4155900;28;20207;-88
2023/01/30 05:59:37;;;;;;;15.70;11.40;;;;;;;2.13;85.18;98517.72;4173333;28;20288;-88
2023/01/30 06:01:42;;;;;;;17.98;12.18;;;;;;;2.15;85.14;98511.66;4156622;28;20229;-88
2023/01/30 06:03:45;;;;;;;16.42;11.52;;;;;;;2.10;85.11;98518.63;4168037;28;20206;-88
2023/01/30 06:05:48;;;;;;;17.15;11.13;;;;;;;2.14;85.04;98524.56;4175688;28;20213;-88
2023/01/30 06:07:51;;;;;;;16.80;11.00;;;;;;;2.10;84.94;98516.06;4174832;28;20220;-88
2023/01/30 06:09:54;;;;;;;16.25;10.93;;;;;;;2.10;85.59;98508.34;4157018;28;20210;-88
2023/01/30 06:11:57;;;;;;;16.02;10.85;;;;;;;2.16;85.38;98505.59;4175611;28;20210;-88
2023/01/30 06:14:00;;;;;;;16.27;10.15;;;;;;;2.20;85.62;98506.38;4158507;28;20369;-88
2023/01/30 06:16:05;;;;;;;16.70;11.23;;;;;;;2.24;85.50;98507.97;4176623;28;20301;-88
2023/01/30 06:18:10;;;;;;;15.90;11.55;;;;;;;2.29;85.46;98513.84;4155682;28;20214;-88
2023/01/30 06:20:13;;;;;;;18.48;11.80;;;;;;;2.30;85.17;98502.63;4173067;28;20213;-88
2023/01/30 06:22:16;;;;;;;15.85;10.88;;;;;;;2.32;84.94;98503.47;4175184;28;20206;-88
2023/01/30 06:24:19;;;;;;;15.70;10.45;;;;;;;2.33;84.61;98510.25;4170494;28;20651;-88
2023/01/30 06:26:22;;;;;;;14.77;10.27;;;;;;;2.35;84.58;98519.63;4175124;28;20670;-88
2023/01/30 06:28:27;;;;;;;15.77;11.57;;;;;;;2.39;84.67;98521.22;4156006;28;20624;-88
2023/01/30 06:30:30;;;;;;;19.20;11.02;;;;;;;2.42;85.14;98516.84;4171131;28;20297;-88
2023/01/30 06:32:33;;;;;;;15.52;10.75;;;;;;;2.43;85.02;98521.06;4172704;28;20297;-88
2023/01/30 06:34:37;;;;;;;15.57;10.63;;;;;;;2.47;85.19;98520.09;4154886;28;20702;-88
2023/01/30 06:36:40;;;;;;;15.13;10.50;;;;;;;2.49;85.95;98513.19;4168812;28;20198;-88
2023/01/30 06:38:43;;;;;;;17.48;11.25;;;;;;;2.50;85.09;98514.03;4169100;28;20198;-88
2023/01/30 06:40:47;;;;;;;14.82;10.32;;;;;;;2.51;85.23;98505.41;4155577;28;20207;-88
2023/01/30 06:42:50;;;;;;;13.05;9.48;;;;;;;2.53;85.20;98514.78;4174508;28;20209;-88
2023/01/30 06:44:53;;;;;;;16.25;9.93;;;;;;;2.54;84.78;98516.47;4176406;28;20226;-87
2023/01/30 06:46:56;;;;;;;12.73;9.35;;;;;;;2.54;84.73;98516.47;4173127;28;20198;-88
2023/01/30 06:48:59;;;;;;;13.32;9.38;;;;;;;2.57;84.54;98515.50;4140594;28;20207;-88
2023/01/30 06:51:04;;;;;;;12.80;9.43;;;;;;;2.53;84.16;98506.22;4153404;28;20298;-88
2023/01/30 06:53:08;;;;;;;13.23;9.20;;;;;;;2.44;84.37;98507.34;4159347;28;20207;-88
2023/01/30 06:55:12;;;;;;;14.82;10.23;;;;;;;2.39;84.07;98503.19;4167283;28;20314;-88
2023/01/30 06:57:15;;;;;;;14.05;10.05;;;;;;;2.34;84.11;98512.78;4176357;28;20213;-88
2023/01/30 06:59:18;;;;;;;14.30;10.05;;;;;;;2.34;84.09;98516.19;4161476;28;20207;-88
2023/01/30 07:01:21;;;;;;;15.20;10.23;;;;;;;2.37;83.96;98520.41;4162006;28;20757;-88
2023/01/30 07:03:24;;;;;;;13.10;9.50;;;;;;;2.33;84.09;98511.97;4139704;28;20214;-88
2023/01/30 07:05:28;;;;;;;13.82;10.15;;;;;;;2.37;83.82;98510.97;4144426;28;20208;-88
2023/01/30 07:07:33;;;;;;;15.85;11.10;;;;;;;2.37;84.21;98508.38;4171803;28;20744;-88
2023/01/30 07:09:36;;;;;;;14.88;9.50;;;;;;;2.38;84.72;98514.41;4142109;28;20220;-87
2023/01/30 07:11:39;;;;;;;14.60;9.90;;;;;;;2.40;83.93;98510.03;4141591;28;20212;-87
2023/01/30 07:13:42;;;;;;;13.27;8.85;;;;;;;2.36;83.78;98511.88;4159958;28;20227;-89
2023/01/30 07:15:46;;;;;;;14.93;9.77;;;;;;;2.29;84.24;98524.13;4159935;28;20698;-88
2023/01/30 07:17:49;;;;;;;15.90;10.25;;;;;;;2.30;83.99;98531.81;4161963;28;20207;-87
2023/01/30 07:19:52;;;;;;;13.73;9.60;;;;;;;2.39;83.83;98534.06;4153856;28;20631;-88
2023/01/30 07:21:55;;;;;;;12.98;9.45;;;;;;;2.47;84.07;98540.69;4146144;28;20217;-88
2023/01/30 07:23:59;;;;;;;14.23;9.25;;;;;;;2.54;84.48;98541.34;4149640;28;20697;-88
2023/01/30 07:26:03;;;;;;;15.15;8.95;;;;;;;2.57;83.61;98543.81;4145420;28;20204;-88
2023/01/30 07:28:06;;;;;;;13.45;9.27;;;;;;;2.53;83.96;98547.41;4147049;28;20590;-88
2023/01/30 07:30:11;;;;;;;12.60;8.80;;;;;;;2.48;83.56;98550.09;4162982;28;20237;-88
2023/01/30 07:32:17;;;;;;;14.80;8.80;;;;;;;2.53;83.10;98544.81;4142016;28;20200;-88
2023/01/30 07:34:20;;;;;;;13.20;9.00;;;;;;;2.58;83.00;98548.09;4160871;28;20241;-84
2023/01/30 07:36:24;;;;;;;15.75;10.68;;;;;;;2.60;83.25;98552.31;4154890;28;20206;-86
2023/01/30 07:38:27;;;;;;;13.77;10.13;;;;;;;2.57;83.19;98547.25;4172753;28;20308;-85
2023/01/30 07:40:32;;;;;;;13.55;10.27;;;;;;;2.53;83.18;98553.38;4158221;28;20297;-85
2023/01/30 07:42:35;;;;;;;13.07;9.40;;;;;;;2.61;83.63;98556.56;4174588;28;20226;-85
2023/01/30 07:44:38;;;;;;;15.35;10.45;;;;;;;2.67;83.57;98543.50;4174565;28;20261;-84
2023/01/30 07:46:42;;;;;;;13.60;9.13;;;;;;;2.65;83.17;98542.72;4159790;28;20207;-84
2023/01/30 07:48:46;;;;;;;14.93;9.55;;;;;;;2.58;83.12;98533.50;4175161;28;20727;-84
2023/01/30 07:50:49;;;;;;;14.30;9.50;;;;;;;2.51;83.41;98534.56;4175453;28;20609;-85
2023/01/30 07:52:52;;;;;;;14.10;9.82;;;;;;;2.56;83.91;98545.56;4156265;28;20203;-85
2023/01/30 07:54:56;;;;;;;16.10;10.48;;;;;;;2.62;83.47;98540.25;4141703;28;20235;-85
2023/01/30 07:57:00;;;;;;;14.45;10.18;;;;;;;2.66;83.16;98539.28;4148901;28;20269;-86
2023/01/30 07:59:04;;;;;;;12.95;9.55;;;;;;;2.66;83.69;98538.41;4158193;28;20616;-85
2023/01/30 08:01:07;;;;;;;12.07;9.55;;;;;;;2.66;83.88;98540.97;4158965;28;20200;-86
2023/01/30 08:03:12;;;;;;;12.63;9.55;;;;;;;2.70;83.52;98538.28;4176670;28;20267;-87
2023/01/30 08:05:15;;;;;;;15.20;9.32;;;;;;;2.70;83.17;98529.72;4151170;28;20246;-85
2023/01/30 08:07:18;;;;;;;15.52;9.98;;;;;;;2.73;83.05;98533.03;4151975;28;20221;-85
2023/01/30 08:09:22;;;;;;;14.38;10.15;;;;;;;2.76;83.95;98542.41;4157522;28;20222;-86
2023/01/30 08:11:25;;;;;;;20.70;9.80;;;;;;;2.82;83.89;98545.63;4138088;28;20707;-86
2023/01/30 08:13:29;;;;;;;14.30;9.70;;;;;;;2.82;83.99;98551.59;4172214;28;20221;-85
2023/01/30 08:15:32;;;;;;;14.65;10.65;;;;;;;2.79;84.31;98549.13;4154958;28;20231;-86
2023/01/30 08:17:35;;;;;;;14.25;9.25;;;;;;;2.68;84.41;98534.91;4157541;28;20246;-86
2023/01/30 08:19:39;;;;;;;14.93;9.95;;;;;;;2.59;85.07;98522.31;4160371;28;20290;-86
2023/01/30 08:21:42;;;;;;;13.80;9.23;;;;;;;2.50;85.17;98504.56;4159241;28;20214;-86
2023/01/30 08:23:45;;;;;;;15.90;9.80;;;;;;;2.42;85.04;98490.25;4173817;28;20724;-85
2023/01/30 08:25:48;;;;;;;13.63;9.52;;;;;;;2.38;85.41;98504.94;4158245;28;20207;-85
2023/01/30 08:27:52;;;;;;;12.07;9.07;;;;;;;2.37;85.98;98517.84;4174503;28;20689;-86
2023/01/30 08:29:57;;;;;;;13.63;9.43;;;;;;;2.37;86.44;98508.38;4158999;28;20233;-86
2023/01/30 08:32:00;;;;;;;12.40;8.85;;;;;;;2.38;86.71;98489.50;4159975;28;20596;-86
2023/01/30 08:34:03;;;;;;;16.02;9.32;;;;;;;2.38;86.45;98479.22;4171903;28;20206;-86
2023/01/30 08:36:07;;;;;;;16.23;10.35;;;;;;;2.40;86.78;98467.13;4170830;28;20257;-86
2023/01/30 08:38:10;;;;;;;15.10;10.02;;;;;;;2.48;86.80;98477.19;4173803;28;20202;-85
2023/01/30 08:40:14;;;;;;;14.80;9.65;;;;;;;2.40;87.42;98476.59;4153264;28;20219;-85
2023/01/30 08:42:18;;;;;;;12.35;9.75;;;;;;;2.41;87.60;98504.03;4155700;28;20651;-84
2023/01/30 08:44:22;;;;;;;13.57;9.25;;;;;;;2.39;87.73;98498.91;4138065;28;20271;-86
2023/01/30 08:46:27;;;;;;;14.55;9.40;;;;;;;2.37;87.68;98492.13;4174779;28;20203;-87
2023/01/30 08:48:30;;;;;;;15.57;9.20;;;;;;;2.36;87.76;98496.44;4174945;28;20781;-85
2023/01/30 08:50:52;;;;;;;13.40;8.60;;;;;;;2.46;87.79;98494.41;4152679;28;20213;-86
2023/01/30 08:52:56;;;;;;;21.98;13.43;;;;;;;2.47;87.71;98488.41;4156721;28;20602;-85
2023/01/30 08:54:59;;;;;;;14.00;8.93;;;;;;;2.50;86.93;98491.72;4167757;28;20210;-86
2023/01/30 08:57:02;;;;;;;14.95;9.07;;;;;;;2.48;87.24;98485.78;4152759;28;20203;-86
2023/01/30 08:59:06;;;;;;;13.63;9.43;;;;;;;2.52;87.57;98477.06;4172486;28;20259;-86
2023/01/30 09:01:09;;;;;;;13.15;9.10;;;;;;;2.52;87.22;98465.94;4153565;28;20226;-86
2023/01/30 09:03:14;;;;;;;15.73;9.15;;;;;;;2.58;87.60;98470.88;4175580;28;20202;-86
2023/01/30 09:05:18;;;;;;;13.32;9.32;;;;;;;2.62;87.35;98467.34;4154790;28;20329;-86
2023/01/30 09:07:21;;;;;;;14.82;9.50;;;;;;;2.63;87.90;98463.84;4156979;28;20219;-86
2023/01/30 09:09:24;;;;;;;14.02;9.32;;;;;;;2.66;87.38;98456.03;4170246;28;20577;-86
2023/01/30 09:11:27;;;;;;;16.10;11.00;;;;;;;2.66;87.97;98459.47;4148166;28;20304;-86
2023/01/30 09:13:30;;;;;;;13.95;8.75;;;;;;;2.66;88.07;98459.47;4170597;28;20272;-86
2023/01/30 09:15:33;;;;;;;14.82;9.30;;;;;;;2.66;88.04;98463.75;4151138;28;20228;-86
2023/01/30 09:17:37;;;;;;;12.02;8.50;;;;;;;2.69;87.18;98473.97;4143074;28;20223;-86
2023/01/30 09:19:41;;;;;;;11.93;8.95;;;;;;;2.74;87.59;98462.63;4159025;28;20264;-86
2023/01/30 09:21:44;;;;;;;12.50;8.70;;;;;;;2.81;87.49;98479.56;4142360;28;20211;-86
2023/01/30 09:23:47;;;;;;;13.27;8.95;;;;;;;2.89;87.40;98480.19;4164241;28;20230;-86
2023/01/30 09:25:50;;;;;;;13.15;8.30;;;;;;;2.92;87.35;98457.72;4172600;28;20216;-86
2023/01/30 09:27:54;;;;;;;14.25;8.82;;;;;;;2.95;87.15;98467.94;4173795;28;20228;-86
2023/01/30 09:29:57;;;;;;;11.57;8.65;;;;;;;2.96;86.78;98468.78;4157170;28;20666;-86
2023/01/30 09:32:00;;;;;;;11.10;7.90;;;;;;;3.00;86.67;98471.19;4157873;28;20211;-86
2023/01/30 09:34:03;;;;;;;13.45;8.55;;;;;;;3.04;87.20;98472.78;4173587;28;20198;-86
2023/01/30 09:36:08;;;;;;;11.88;8.80;;;;;;;3.04;86.96;98469.38;4171325;28;20683;-86
2023/01/30 09:38:11;;;;;;;9.88;7.85;;;;;;;3.04;87.44;98462.50;4143056;28;20349;-86
2023/01/30 09:40:17;;;;;;;13.40;8.80;;;;;;;3.01;87.59;98456.59;4174150;28;20332;-86
2023/01/30 09:42:39;;;;;;;12.15;8.60;;;;;;;3.06;87.61;98459.88;4157782;28;20211;-88
2023/01/30 09:45:14;;;;;;;14.15;7.90;;;;;;;3.13;86.98;98444.16;4153217;28;20250;-88
2023/01/30 09:47:22;;;;;;;13.00;8.05;;;;;;;3.20;86.98;98434.47;4164258;28;20205;-88
2023/01/30 09:49:35;;;;;;;12.98;8.35;;;;;;;3.23;87.22;98436.94;4149781;28;22107;-89